sensor_id;sensor_type;location;lat;lon;timestamp;P1;durP1;ratioP1;P2;durP2;ratioP2
22656;SDS011;11495;55.610;12.100;2023-03-14T00:01:28;17.70;;;2.97;;
22656;SDS011;11495;55.610;12.100;2023-03-14T00:03:54;18.62;;;3.22;;
22656;SDS011;11495;55.610;12.100;2023-03-14T00:06:19;14.52;;;3.62;;
22656;SDS011;11495;55.610;12.100;2023-03-14T00:08:45;21.15;;;4.03;;
22656;SDS011;11495;55.610;12.100;2023-03-14T00:11:11;21.98;;;3.70;;
22656;SDS011;11495;55.610;12.100;2023-03-14T00:13:37;17.65;;;2.78;;
22656;SDS011;11495;55.610;12.100;2023-03-14T00:16:05;22.50;;;3.67;;
22656;SDS011;11495;55.610;12.100;2023-03-14T00:18:31;23.42;;;4.07;;
22656;SDS011;11495;55.610;12.100;2023-03-14T00:20:57;25.12;;;3.67;;
22656;SDS011;11495;55.610;12.100;2023-03-14T00:23:22;16.85;;;3.53;;
22656;SDS011;11495;55.610;12.100;2023-03-14T00:25:48;23.90;;;4.10;;
22656;SDS011;11495;55.610;12.100;2023-03-14T00:28:13;26.60;;;5.73;;
22656;SDS011;11495;55.610;12.100;2023-03-14T00:30:38;12.93;;;3.17;;
22656;SDS011;11495;55.610;12.100;2023-03-14T00:33:03;17.73;;;3.00;;
22656;SDS011;11495;55.610;12.100;2023-03-14T00:35:29;16.13;;;2.77;;
22656;SDS011;11495;55.610;12.100;2023-03-14T00:37:54;18.83;;;3.53;;
22656;SDS011;11495;55.610;12.100;2023-03-14T00:40:19;22.07;;;4.13;;
22656;SDS011;11495;55.610;12.100;2023-03-14T00:42:44;12.27;;;3.83;;
22656;SDS011;11495;55.610;12.100;2023-03-14T00:45:10;18.93;;;3.90;;
22656;SDS011;11495;55.610;12.100;2023-03-14T00:47:35;17.05;;;2.87;;
22656;SDS011;11495;55.610;12.100;2023-03-14T00:50:00;12.65;;;2.67;;
22656;SDS011;11495;55.610;12.100;2023-03-14T00:52:26;13.68;;;3.12;;
22656;SDS011;11495;55.610;12.100;2023-03-14T00:54:51;15.93;;;3.00;;
22656;SDS011;11495;55.610;12.100;2023-03-14T00:57:16;24.40;;;4.23;;
22656;SDS011;11495;55.610;12.100;2023-03-14T00:59:41;19.50;;;4.30;;
22656;SDS011;11495;55.610;12.100;2023-03-14T01:02:07;16.10;;;2.97;;
22656;SDS011;11495;55.610;12.100;2023-03-14T01:04:32;18.87;;;2.92;;
22656;SDS011;11495;55.610;12.100;2023-03-14T01:06:57;16.12;;;3.37;;
22656;SDS011;11495;55.610;12.100;2023-03-14T01:09:22;21.20;;;3.20;;
22656;SDS011;11495;55.610;12.100;2023-03-14T01:11:48;19.10;;;3.42;;
22656;SDS011;11495;55.610;12.100;2023-03-14T01:14:13;12.68;;;2.78;;
22656;SDS011;11495;55.610;12.100;2023-03-14T01:16:39;16.15;;;2.80;;
22656;SDS011;11495;55.610;12.100;2023-03-14T01:19:04;12.15;;;3.03;;
22656;SDS011;11495;55.610;12.100;2023-03-14T01:21:31;13.45;;;2.37;;
22656;SDS011;11495;55.610;12.100;2023-03-14T01:23:57;21.73;;;4.53;;
22656;SDS011;11495;55.610;12.100;2023-03-14T01:26:23;17.87;;;3.97;;
22656;SDS011;11495;55.610;12.100;2023-03-14T01:28:49;19.33;;;3.50;;
22656;SDS011;11495;55.610;12.100;2023-03-14T01:31:15;17.30;;;3.20;;
22656;SDS011;11495;55.610;12.100;2023-03-14T01:33:40;21.12;;;4.10;;
22656;SDS011;11495;55.610;12.100;2023-03-14T01:36:06;20.95;;;3.62;;
22656;SDS011;11495;55.610;12.100;2023-03-14T01:38:32;20.90;;;3.50;;
22656;SDS011;11495;55.610;12.100;2023-03-14T01:40:57;15.15;;;3.17;;
22656;SDS011;11495;55.610;12.100;2023-03-14T01:43:23;22.07;;;3.63;;
22656;SDS011;11495;55.610;12.100;2023-03-14T01:48:23;19.20;;;3.60;;
22656;SDS011;11495;55.610;12.100;2023-03-14T01:50:49;20.70;;;3.75;;
22656;SDS011;11495;55.610;12.100;2023-03-14T01:53:14;9.30;;;2.77;;
22656;SDS011;11495;55.610;12.100;2023-03-14T01:55:40;19.67;;;3.37;;
22656;SDS011;11495;55.610;12.100;2023-03-14T01:58:05;18.50;;;3.22;;
22656;SDS011;11495;55.610;12.100;2023-03-14T02:00:31;12.95;;;2.72;;
22656;SDS011;11495;55.610;12.100;2023-03-14T02:02:57;11.10;;;2.67;;
22656;SDS011;11495;55.610;12.100;2023-03-14T02:05:25;15.23;;;3.25;;
22656;SDS011;11495;55.610;12.100;2023-03-14T02:07:55;14.35;;;2.53;;
22656;SDS011;11495;55.610;12.100;2023-03-14T02:10:22;17.23;;;2.87;;
22656;SDS011;11495;55.610;12.100;2023-03-14T02:12:47;28.08;;;3.70;;
22656;SDS011;11495;55.610;12.100;2023-03-14T02:15:13;18.92;;;3.42;;
22656;SDS011;11495;55.610;12.100;2023-03-14T02:17:40;14.87;;;2.58;;
22656;SDS011;11495;55.610;12.100;2023-03-14T02:22:49;14.23;;;3.55;;
22656;SDS011;11495;55.610;12.100;2023-03-14T02:27:46;21.35;;;3.60;;
22656;SDS011;11495;55.610;12.100;2023-03-14T02:30:31;13.98;;;2.78;;
22656;SDS011;11495;55.610;12.100;2023-03-14T02:33:29;10.07;;;2.37;;
22656;SDS011;11495;55.610;12.100;2023-03-14T02:35:58;13.43;;;2.83;;
22656;SDS011;11495;55.610;12.100;2023-03-14T02:38:27;26.98;;;3.72;;
22656;SDS011;11495;55.610;12.100;2023-03-14T02:40:53;17.33;;;3.50;;
22656;SDS011;11495;55.610;12.100;2023-03-14T02:43:19;19.67;;;3.63;;
22656;SDS011;11495;55.610;12.100;2023-03-14T02:45:45;19.07;;;3.23;;
22656;SDS011;11495;55.610;12.100;2023-03-14T02:53:29;14.77;;;3.27;;
22656;SDS011;11495;55.610;12.100;2023-03-14T02:55:55;12.85;;;2.58;;
22656;SDS011;11495;55.610;12.100;2023-03-14T02:58:20;10.60;;;3.08;;
22656;SDS011;11495;55.610;12.100;2023-03-14T03:00:45;20.60;;;3.37;;
22656;SDS011;11495;55.610;12.100;2023-03-14T03:03:11;17.15;;;3.60;;
22656;SDS011;11495;55.610;12.100;2023-03-14T03:05:37;21.92;;;3.87;;
22656;SDS011;11495;55.610;12.100;2023-03-14T03:08:02;16.83;;;3.05;;
22656;SDS011;11495;55.610;12.100;2023-03-14T03:10:28;17.12;;;4.18;;
22656;SDS011;11495;55.610;12.100;2023-03-14T03:12:53;19.95;;;2.92;;
22656;SDS011;11495;55.610;12.100;2023-03-14T03:15:19;16.07;;;2.80;;
22656;SDS011;11495;55.610;12.100;2023-03-14T03:17:44;16.67;;;3.37;;
22656;SDS011;11495;55.610;12.100;2023-03-14T03:20:09;24.75;;;4.30;;
22656;SDS011;11495;55.610;12.100;2023-03-14T03:22:35;15.45;;;3.47;;
22656;SDS011;11495;55.610;12.100;2023-03-14T03:25:01;16.23;;;3.47;;
22656;SDS011;11495;55.610;12.100;2023-03-14T03:27:26;22.45;;;4.80;;
22656;SDS011;11495;55.610;12.100;2023-03-14T03:29:51;20.90;;;3.03;;
22656;SDS011;11495;55.610;12.100;2023-03-14T03:32:16;21.17;;;3.77;;
22656;SDS011;11495;55.610;12.100;2023-03-14T03:34:42;16.87;;;3.77;;
22656;SDS011;11495;55.610;12.100;2023-03-14T03:37:07;13.52;;;2.40;;
22656;SDS011;11495;55.610;12.100;2023-03-14T03:39:32;14.23;;;2.60;;
22656;SDS011;11495;55.610;12.100;2023-03-14T03:41:58;16.07;;;3.03;;
22656;SDS011;11495;55.610;12.100;2023-03-14T03:44:23;20.10;;;3.77;;
22656;SDS011;11495;55.610;12.100;2023-03-14T03:46:48;19.53;;;3.67;;
22656;SDS011;11495;55.610;12.100;2023-03-14T03:49:13;14.73;;;2.43;;
22656;SDS011;11495;55.610;12.100;2023-03-14T03:51:39;15.50;;;2.70;;
22656;SDS011;11495;55.610;12.100;2023-03-14T03:54:04;17.58;;;3.55;;
22656;SDS011;11495;55.610;12.100;2023-03-14T03:56:29;17.17;;;3.23;;
22656;SDS011;11495;55.610;12.100;2023-03-14T03:58:56;18.87;;;2.92;;
22656;SDS011;11495;55.610;12.100;2023-03-14T04:01:21;22.73;;;3.27;;
22656;SDS011;11495;55.610;12.100;2023-03-14T04:03:46;15.43;;;3.80;;
22656;SDS011;11495;55.610;12.100;2023-03-14T04:06:12;20.27;;;2.80;;
22656;SDS011;11495;55.610;12.100;2023-03-14T04:08:37;16.67;;;2.55;;
22656;SDS011;11495;55.610;12.100;2023-03-14T04:11:04;20.00;;;2.67;;
22656;SDS011;11495;55.610;12.100;2023-03-14T04:13:29;15.48;;;2.97;;
22656;SDS011;11495;55.610;12.100;2023-03-14T04:15:54;16.12;;;2.55;;
22656;SDS011;11495;55.610;12.100;2023-03-14T04:18:20;16.48;;;2.87;;
22656;SDS011;11495;55.610;12.100;2023-03-14T04:20:45;13.52;;;2.08;;
22656;SDS011;11495;55.610;12.100;2023-03-14T04:23:11;22.48;;;2.53;;
22656;SDS011;11495;55.610;12.100;2023-03-14T04:25:36;20.30;;;4.43;;
22656;SDS011;11495;55.610;12.100;2023-03-14T04:28:02;15.83;;;2.67;;
22656;SDS011;11495;55.610;12.100;2023-03-14T04:30:29;19.77;;;3.87;;
22656;SDS011;11495;55.610;12.100;2023-03-14T04:32:54;11.38;;;2.33;;
22656;SDS011;11495;55.610;12.100;2023-03-14T04:35:19;19.67;;;3.07;;
22656;SDS011;11495;55.610;12.100;2023-03-14T04:37:44;13.90;;;3.60;;
22656;SDS011;11495;55.610;12.100;2023-03-14T04:40:10;16.43;;;2.80;;
22656;SDS011;11495;55.610;12.100;2023-03-14T04:42:35;17.92;;;3.25;;
22656;SDS011;11495;55.610;12.100;2023-03-14T04:45:01;14.40;;;2.80;;
22656;SDS011;11495;55.610;12.100;2023-03-14T04:47:26;9.73;;;2.47;;
22656;SDS011;11495;55.610;12.100;2023-03-14T04:49:52;11.52;;;2.65;;
22656;SDS011;11495;55.610;12.100;2023-03-14T04:52:17;19.53;;;3.27;;
22656;SDS011;11495;55.610;12.100;2023-03-14T04:54:42;15.23;;;2.57;;
22656;SDS011;11495;55.610;12.100;2023-03-14T04:57:07;17.83;;;3.35;;
22656;SDS011;11495;55.610;12.100;2023-03-14T04:59:32;21.20;;;3.53;;
22656;SDS011;11495;55.610;12.100;2023-03-14T05:01:58;22.30;;;3.23;;
22656;SDS011;11495;55.610;12.100;2023-03-14T05:04:23;10.47;;;2.57;;
22656;SDS011;11495;55.610;12.100;2023-03-14T05:06:48;11.07;;;3.35;;
22656;SDS011;11495;55.610;12.100;2023-03-14T05:09:13;11.20;;;2.75;;
22656;SDS011;11495;55.610;12.100;2023-03-14T05:11:40;7.85;;;1.83;;
22656;SDS011;11495;55.610;12.100;2023-03-14T05:14:05;14.47;;;2.37;;
22656;SDS011;11495;55.610;12.100;2023-03-14T05:16:30;16.80;;;3.30;;
22656;SDS011;11495;55.610;12.100;2023-03-14T05:18:56;10.95;;;2.20;;
22656;SDS011;11495;55.610;12.100;2023-03-14T05:21:21;21.90;;;3.20;;
22656;SDS011;11495;55.610;12.100;2023-03-14T05:23:46;12.20;;;2.80;;
22656;SDS011;11495;55.610;12.100;2023-03-14T05:26:11;14.73;;;3.80;;
22656;SDS011;11495;55.610;12.100;2023-03-14T05:28:37;23.80;;;4.67;;
22656;SDS011;11495;55.610;12.100;2023-03-14T05:31:05;13.70;;;2.07;;
22656;SDS011;11495;55.610;12.100;2023-03-14T05:33:31;11.40;;;2.00;;
22656;SDS011;11495;55.610;12.100;2023-03-14T05:35:56;13.18;;;3.35;;
22656;SDS011;11495;55.610;12.100;2023-03-14T05:38:21;10.23;;;2.63;;
22656;SDS011;11495;55.610;12.100;2023-03-14T05:40:47;12.93;;;3.35;;
22656;SDS011;11495;55.610;12.100;2023-03-14T05:43:12;10.23;;;2.50;;
22656;SDS011;11495;55.610;12.100;2023-03-14T05:45:38;18.42;;;2.70;;
22656;SDS011;11495;55.610;12.100;2023-03-14T05:48:03;10.07;;;2.10;;
22656;SDS011;11495;55.610;12.100;2023-03-14T05:50:29;15.38;;;2.75;;
22656;SDS011;11495;55.610;12.100;2023-03-14T05:52:54;13.85;;;2.97;;
22656;SDS011;11495;55.610;12.100;2023-03-14T05:55:19;20.17;;;3.20;;
22656;SDS011;11495;55.610;12.100;2023-03-14T05:57:44;10.90;;;2.77;;
22656;SDS011;11495;55.610;12.100;2023-03-14T06:00:10;16.27;;;2.80;;
22656;SDS011;11495;55.610;12.100;2023-03-14T06:02:35;24.75;;;3.50;;
22656;SDS011;11495;55.610;12.100;2023-03-14T06:05:00;11.07;;;3.17;;
22656;SDS011;11495;55.610;12.100;2023-03-14T06:07:25;15.47;;;2.73;;
22656;SDS011;11495;55.610;12.100;2023-03-14T06:09:51;18.30;;;3.20;;
22656;SDS011;11495;55.610;12.100;2023-03-14T06:12:16;15.20;;;3.70;;
22656;SDS011;11495;55.610;12.100;2023-03-14T06:14:42;16.05;;;2.80;;
22656;SDS011;11495;55.610;12.100;2023-03-14T06:17:07;11.90;;;2.40;;
22656;SDS011;11495;55.610;12.100;2023-03-14T06:19:32;17.43;;;3.37;;
22656;SDS011;11495;55.610;12.100;2023-03-14T06:21:58;10.47;;;2.43;;
22656;SDS011;11495;55.610;12.100;2023-03-14T06:24:23;23.63;;;3.37;;
22656;SDS011;11495;55.610;12.100;2023-03-14T06:26:48;20.30;;;3.33;;
22656;SDS011;11495;55.610;12.100;2023-03-14T06:29:13;15.63;;;4.00;;
22656;SDS011;11495;55.610;12.100;2023-03-14T06:31:38;11.97;;;2.83;;
22656;SDS011;11495;55.610;12.100;2023-03-14T06:34:04;21.17;;;4.97;;
22656;SDS011;11495;55.610;12.100;2023-03-14T06:36:29;16.08;;;4.22;;
22656;SDS011;11495;55.610;12.100;2023-03-14T06:38:54;13.13;;;2.83;;
22656;SDS011;11495;55.610;12.100;2023-03-14T06:41:19;12.00;;;2.30;;
22656;SDS011;11495;55.610;12.100;2023-03-14T06:43:45;9.27;;;2.10;;
22656;SDS011;11495;55.610;12.100;2023-03-14T06:46:10;9.23;;;3.40;;
22656;SDS011;11495;55.610;12.100;2023-03-14T06:48:35;8.45;;;2.92;;
22656;SDS011;11495;55.610;12.100;2023-03-14T06:51:00;10.53;;;2.47;;
22656;SDS011;11495;55.610;12.100;2023-03-14T06:53:26;9.37;;;2.70;;
22656;SDS011;11495;55.610;12.100;2023-03-14T06:55:51;17.33;;;4.47;;
22656;SDS011;11495;55.610;12.100;2023-03-14T06:58:16;13.90;;;3.08;;
22656;SDS011;11495;55.610;12.100;2023-03-14T07:00:41;10.65;;;2.60;;
22656;SDS011;11495;55.610;12.100;2023-03-14T07:03:07;14.17;;;3.30;;
22656;SDS011;11495;55.610;12.100;2023-03-14T07:05:32;10.95;;;4.03;;
22656;SDS011;11495;55.610;12.100;2023-03-14T07:07:57;9.60;;;3.55;;
22656;SDS011;11495;55.610;12.100;2023-03-14T07:10:23;7.22;;;2.90;;
22656;SDS011;11495;55.610;12.100;2023-03-14T07:12:48;9.68;;;3.15;;
22656;SDS011;11495;55.610;12.100;2023-03-14T07:15:14;8.73;;;3.17;;
22656;SDS011;11495;55.610;12.100;2023-03-14T07:17:39;15.57;;;3.62;;
22656;SDS011;11495;55.610;12.100;2023-03-14T07:20:04;10.13;;;2.87;;
22656;SDS011;11495;55.610;12.100;2023-03-14T07:22:30;15.52;;;3.35;;
22656;SDS011;11495;55.610;12.100;2023-03-14T07:24:56;11.18;;;3.65;;
22656;SDS011;11495;55.610;12.100;2023-03-14T07:27:21;7.33;;;2.80;;
22656;SDS011;11495;55.610;12.100;2023-03-14T07:29:46;6.77;;;3.63;;
22656;SDS011;11495;55.610;12.100;2023-03-14T07:32:11;11.23;;;3.97;;
22656;SDS011;11495;55.610;12.100;2023-03-14T07:34:40;7.00;;;3.00;;
22656;SDS011;11495;55.610;12.100;2023-03-14T07:37:05;7.93;;;3.37;;
22656;SDS011;11495;55.610;12.100;2023-03-14T07:39:30;16.30;;;4.27;;
22656;SDS011;11495;55.610;12.100;2023-03-14T07:41:55;11.20;;;3.00;;
22656;SDS011;11495;55.610;12.100;2023-03-14T07:44:21;8.20;;;3.53;;
22656;SDS011;11495;55.610;12.100;2023-03-14T07:46:46;9.17;;;3.10;;
22656;SDS011;11495;55.610;12.100;2023-03-14T07:49:11;9.20;;;3.20;;
22656;SDS011;11495;55.610;12.100;2023-03-14T07:51:36;11.90;;;3.67;;
22656;SDS011;11495;55.610;12.100;2023-03-14T07:54:01;11.63;;;2.90;;
22656;SDS011;11495;55.610;12.100;2023-03-14T07:56:27;9.07;;;3.00;;
22656;SDS011;11495;55.610;12.100;2023-03-14T07:58:52;9.93;;;3.20;;
22656;SDS011;11495;55.610;12.100;2023-03-14T08:01:17;7.60;;;3.10;;
22656;SDS011;11495;55.610;12.100;2023-03-14T08:03:42;4.90;;;2.57;;
22656;SDS011;11495;55.610;12.100;2023-03-14T08:06:08;6.78;;;2.35;;
22656;SDS011;11495;55.610;12.100;2023-03-14T08:08:33;7.65;;;2.92;;
22656;SDS011;11495;55.610;12.100;2023-03-14T08:11:02;8.18;;;2.60;;
22656;SDS011;11495;55.610;12.100;2023-03-14T08:13:28;10.55;;;3.45;;
22656;SDS011;11495;55.610;12.100;2023-03-14T08:15:53;9.83;;;2.80;;
22656;SDS011;11495;55.610;12.100;2023-03-14T08:18:18;7.40;;;3.37;;
22656;SDS011;11495;55.610;12.100;2023-03-14T08:20:43;3.70;;;2.40;;
22656;SDS011;11495;55.610;12.100;2023-03-14T08:23:09;4.67;;;2.50;;
22656;SDS011;11495;55.610;12.100;2023-03-14T08:25:34;3.57;;;2.43;;
22656;SDS011;11495;55.610;12.100;2023-03-14T08:27:59;6.62;;;3.10;;
22656;SDS011;11495;55.610;12.100;2023-03-14T08:30:25;3.22;;;2.30;;
22656;SDS011;11495;55.610;12.100;2023-03-14T08:32:50;6.75;;;2.03;;
22656;SDS011;11495;55.610;12.100;2023-03-14T08:35:16;4.45;;;0.98;;
22656;SDS011;11495;55.610;12.100;2023-03-14T08:37:41;0.98;;;0.60;;
22656;SDS011;11495;55.610;12.100;2023-03-14T08:40:07;1.25;;;0.57;;
22656;SDS011;11495;55.610;12.100;2023-03-14T08:42:33;2.55;;;0.77;;
22656;SDS011;11495;55.610;12.100;2023-03-14T08:44:59;5.50;;;1.00;;
22656;SDS011;11495;55.610;12.100;2023-03-14T08:47:24;5.40;;;1.57;;
22656;SDS011;11495;55.610;12.100;2023-03-14T08:49:49;5.30;;;1.08;;
22656;SDS011;11495;55.610;12.100;2023-03-14T08:52:14;13.95;;;3.00;;
22656;SDS011;11495;55.610;12.100;2023-03-14T08:54:41;6.12;;;1.67;;
22656;SDS011;11495;55.610;12.100;2023-03-14T08:57:06;6.32;;;1.15;;
22656;SDS011;11495;55.610;12.100;2023-03-14T08:59:31;7.47;;;1.98;;
22656;SDS011;11495;55.610;12.100;2023-03-14T09:01:57;6.17;;;1.70;;
22656;SDS011;11495;55.610;12.100;2023-03-14T09:04:22;4.50;;;1.23;;
22656;SDS011;11495;55.610;12.100;2023-03-14T09:06:47;9.67;;;1.27;;
22656;SDS011;11495;55.610;12.100;2023-03-14T09:09:12;4.50;;;1.30;;
22656;SDS011;11495;55.610;12.100;2023-03-14T09:11:38;4.93;;;1.62;;
22656;SDS011;11495;55.610;12.100;2023-03-14T09:14:03;7.90;;;1.83;;
22656;SDS011;11495;55.610;12.100;2023-03-14T09:16:29;13.07;;;1.70;;
22656;SDS011;11495;55.610;12.100;2023-03-14T09:18:54;10.53;;;2.80;;
22656;SDS011;11495;55.610;12.100;2023-03-14T09:21:20;11.60;;;1.92;;
22656;SDS011;11495;55.610;12.100;2023-03-14T09:23:45;10.23;;;1.62;;
22656;SDS011;11495;55.610;12.100;2023-03-14T09:26:10;8.90;;;1.37;;
22656;SDS011;11495;55.610;12.100;2023-03-14T09:28:36;8.45;;;1.50;;
22656;SDS011;11495;55.610;12.100;2023-03-14T09:31:05;4.15;;;1.05;;
22656;SDS011;11495;55.610;12.100;2023-03-14T09:33:31;9.80;;;1.75;;
22656;SDS011;11495;55.610;12.100;2023-03-14T09:35:57;7.70;;;3.03;;
22656;SDS011;11495;55.610;12.100;2023-03-14T09:38:23;8.70;;;1.62;;
22656;SDS011;11495;55.610;12.100;2023-03-14T09:40:48;5.03;;;1.42;;
22656;SDS011;11495;55.610;12.100;2023-03-14T09:43:14;7.18;;;1.50;;
22656;SDS011;11495;55.610;12.100;2023-03-14T09:45:40;8.02;;;1.35;;
22656;SDS011;11495;55.610;12.100;2023-03-14T09:48:08;5.47;;;1.37;;
22656;SDS011;11495;55.610;12.100;2023-03-14T09:50:39;5.65;;;1.10;;
22656;SDS011;11495;55.610;12.100;2023-03-14T09:53:06;3.40;;;1.37;;
22656;SDS011;11495;55.610;12.100;2023-03-14T09:55:34;10.13;;;1.67;;
22656;SDS011;11495;55.610;12.100;2023-03-14T09:58:00;5.20;;;0.95;;
22656;SDS011;11495;55.610;12.100;2023-03-14T10:00:28;13.65;;;4.35;;
22656;SDS011;11495;55.610;12.100;2023-03-14T10:03:00;5.12;;;1.80;;
22656;SDS011;11495;55.610;12.100;2023-03-14T10:05:31;9.13;;;2.90;;
22656;SDS011;11495;55.610;12.100;2023-03-14T10:07:56;10.83;;;1.43;;
22656;SDS011;11495;55.610;12.100;2023-03-14T10:10:22;8.63;;;1.60;;
22656;SDS011;11495;55.610;12.100;2023-03-14T10:12:54;4.32;;;1.02;;
22656;SDS011;11495;55.610;12.100;2023-03-14T10:15:24;4.57;;;1.15;;
22656;SDS011;11495;55.610;12.100;2023-03-14T10:17:50;6.78;;;1.17;;
22656;SDS011;11495;55.610;12.100;2023-03-14T10:20:26;3.25;;;0.80;;
22656;SDS011;11495;55.610;12.100;2023-03-14T10:22:52;3.42;;;1.20;;
22656;SDS011;11495;55.610;12.100;2023-03-14T10:25:28;2.20;;;0.90;;
22656;SDS011;11495;55.610;12.100;2023-03-14T10:27:54;5.45;;;0.93;;
22656;SDS011;11495;55.610;12.100;2023-03-14T10:33:30;4.57;;;0.90;;
22656;SDS011;11495;55.610;12.100;2023-03-14T10:35:55;6.25;;;1.10;;
22656;SDS011;11495;55.610;12.100;2023-03-14T10:38:22;5.00;;;0.93;;
22656;SDS011;11495;55.610;12.100;2023-03-14T10:40:48;8.13;;;2.00;;
22656;SDS011;11495;55.610;12.100;2023-03-14T10:43:18;9.70;;;1.65;;
22656;SDS011;11495;55.610;12.100;2023-03-14T10:45:51;7.95;;;1.05;;
22656;SDS011;11495;55.610;12.100;2023-03-14T10:53:23;6.70;;;1.60;;
22656;SDS011;11495;55.610;12.100;2023-03-14T10:55:48;6.47;;;1.40;;
22656;SDS011;11495;55.610;12.100;2023-03-14T10:58:21;1.95;;;0.88;;
22656;SDS011;11495;55.610;12.100;2023-03-14T11:00:48;13.80;;;1.60;;
22656;SDS011;11495;55.610;12.100;2023-03-14T11:03:15;9.20;;;1.55;;
22656;SDS011;11495;55.610;12.100;2023-03-14T11:05:57;5.30;;;1.08;;
22656;SDS011;11495;55.610;12.100;2023-03-14T11:08:24;10.07;;;1.23;;
22656;SDS011;11495;55.610;12.100;2023-03-14T11:10:53;6.85;;;1.12;;
22656;SDS011;11495;55.610;12.100;2023-03-14T11:13:22;6.53;;;1.17;;
22656;SDS011;11495;55.610;12.100;2023-03-14T11:15:51;10.07;;;1.67;;
22656;SDS011;11495;55.610;12.100;2023-03-14T11:21:21;4.45;;;0.88;;
22656;SDS011;11495;55.610;12.100;2023-03-14T11:28:56;6.05;;;1.27;;
22656;SDS011;11495;55.610;12.100;2023-03-14T11:31:26;11.48;;;1.35;;
22656;SDS011;11495;55.610;12.100;2023-03-14T11:36:39;10.50;;;1.73;;
22656;SDS011;11495;55.610;12.100;2023-03-14T11:39:08;9.77;;;3.50;;
22656;SDS011;11495;55.610;12.100;2023-03-14T11:41:38;8.32;;;2.67;;
22656;SDS011;11495;55.610;12.100;2023-03-14T11:44:07;8.02;;;4.20;;
22656;SDS011;11495;55.610;12.100;2023-03-14T11:46:39;8.73;;;2.40;;
22656;SDS011;11495;55.610;12.100;2023-03-14T11:49:08;13.80;;;1.75;;
22656;SDS011;11495;55.610;12.100;2023-03-14T11:51:38;11.65;;;1.90;;
22656;SDS011;11495;55.610;12.100;2023-03-14T11:54:26;4.85;;;2.15;;
22656;SDS011;11495;55.610;12.100;2023-03-14T11:57:10;9.82;;;2.10;;
22656;SDS011;11495;55.610;12.100;2023-03-14T11:59:48;5.22;;;1.40;;
22656;SDS011;11495;55.610;12.100;2023-03-14T12:05:19;11.52;;;1.70;;
22656;SDS011;11495;55.610;12.100;2023-03-14T12:07:38;9.57;;;1.58;;
22656;SDS011;11495;55.610;12.100;2023-03-14T12:10:05;7.20;;;1.33;;
22656;SDS011;11495;55.610;12.100;2023-03-14T12:12:30;7.03;;;1.25;;
22656;SDS011;11495;55.610;12.100;2023-03-14T12:14:59;6.85;;;1.50;;
22656;SDS011;11495;55.610;12.100;2023-03-14T12:17:26;8.32;;;1.92;;
22656;SDS011;11495;55.610;12.100;2023-03-14T12:22:41;14.18;;;2.50;;
22656;SDS011;11495;55.610;12.100;2023-03-14T12:27:45;8.88;;;1.98;;
22656;SDS011;11495;55.610;12.100;2023-03-14T12:30:23;8.65;;;1.75;;
22656;SDS011;11495;55.610;12.100;2023-03-14T12:35:35;5.12;;;1.10;;
22656;SDS011;11495;55.610;12.100;2023-03-14T12:38:00;5.32;;;1.33;;
22656;SDS011;11495;55.610;12.100;2023-03-14T12:40:35;8.30;;;0.93;;
22656;SDS011;11495;55.610;12.100;2023-03-14T12:43:04;11.00;;;1.30;;
22656;SDS011;11495;55.610;12.100;2023-03-14T12:45:36;3.87;;;1.20;;
22656;SDS011;11495;55.610;12.100;2023-03-14T12:58:16;6.18;;;1.17;;
22656;SDS011;11495;55.610;12.100;2023-03-14T13:00:42;8.48;;;1.30;;
22656;SDS011;11495;55.610;12.100;2023-03-14T13:03:20;4.07;;;0.98;;
22656;SDS011;11495;55.610;12.100;2023-03-14T13:08:32;7.30;;;1.42;;
22656;SDS011;11495;55.610;12.100;2023-03-14T13:10:57;12.85;;;1.77;;
22656;SDS011;11495;55.610;12.100;2023-03-14T13:13:24;8.25;;;1.40;;
22656;SDS011;11495;55.610;12.100;2023-03-14T13:15:56;3.87;;;1.25;;
22656;SDS011;11495;55.610;12.100;2023-03-14T13:18:26;5.57;;;2.05;;
22656;SDS011;11495;55.610;12.100;2023-03-14T13:20:55;7.62;;;1.67;;
22656;SDS011;11495;55.610;12.100;2023-03-14T13:23:23;6.85;;;0.90;;
22656;SDS011;11495;55.610;12.100;2023-03-14T13:25:48;7.80;;;2.40;;
22656;SDS011;11495;55.610;12.100;2023-03-14T13:28:14;5.57;;;0.90;;
22656;SDS011;11495;55.610;12.100;2023-03-14T13:30:40;8.00;;;1.57;;
22656;SDS011;11495;55.610;12.100;2023-03-14T13:33:06;5.70;;;1.30;;
22656;SDS011;11495;55.610;12.100;2023-03-14T13:35:39;6.80;;;1.10;;
22656;SDS011;11495;55.610;12.100;2023-03-14T13:38:04;4.20;;;0.85;;
22656;SDS011;11495;55.610;12.100;2023-03-14T13:40:31;6.60;;;1.07;;
22656;SDS011;11495;55.610;12.100;2023-03-14T13:45:44;7.05;;;2.03;;
22656;SDS011;11495;55.610;12.100;2023-03-14T13:48:11;5.15;;;1.10;;
22656;SDS011;11495;55.610;12.100;2023-03-14T13:50:37;6.93;;;1.00;;
22656;SDS011;11495;55.610;12.100;2023-03-14T13:53:02;7.27;;;1.27;;
22656;SDS011;11495;55.610;12.100;2023-03-14T13:55:27;7.53;;;1.40;;
22656;SDS011;11495;55.610;12.100;2023-03-14T13:57:54;2.55;;;0.95;;
22656;SDS011;11495;55.610;12.100;2023-03-14T14:02:45;4.93;;;0.90;;
22656;SDS011;11495;55.610;12.100;2023-03-14T14:05:11;5.60;;;1.27;;
22656;SDS011;11495;55.610;12.100;2023-03-14T14:07:36;10.15;;;1.58;;
22656;SDS011;11495;55.610;12.100;2023-03-14T14:10:03;3.87;;;1.25;;
22656;SDS011;11495;55.610;12.100;2023-03-14T14:12:39;5.78;;;1.00;;
22656;SDS011;11495;55.610;12.100;2023-03-14T14:15:12;5.75;;;1.50;;
22656;SDS011;11495;55.610;12.100;2023-03-14T14:17:39;7.40;;;1.00;;
22656;SDS011;11495;55.610;12.100;2023-03-14T14:20:07;7.65;;;1.85;;
22656;SDS011;11495;55.610;12.100;2023-03-14T14:22:32;3.65;;;0.85;;
22656;SDS011;11495;55.610;12.100;2023-03-14T14:24:57;2.30;;;0.82;;
22656;SDS011;11495;55.610;12.100;2023-03-14T14:27:42;3.95;;;1.08;;
22656;SDS011;11495;55.610;12.100;2023-03-14T14:32:42;8.23;;;1.33;;
22656;SDS011;11495;55.610;12.100;2023-03-14T14:35:09;7.65;;;1.10;;
22656;SDS011;11495;55.610;12.100;2023-03-14T14:37:40;7.78;;;1.05;;
22656;SDS011;11495;55.610;12.100;2023-03-14T14:40:22;8.93;;;1.30;;
22656;SDS011;11495;55.610;12.100;2023-03-14T14:42:48;7.78;;;1.37;;
22656;SDS011;11495;55.610;12.100;2023-03-14T14:45:23;5.37;;;1.65;;
22656;SDS011;11495;55.610;12.100;2023-03-14T14:52:59;7.85;;;1.70;;
22656;SDS011;11495;55.610;12.100;2023-03-14T14:55:29;4.80;;;1.00;;
22656;SDS011;11495;55.610;12.100;2023-03-14T14:57:55;5.22;;;0.82;;
22656;SDS011;11495;55.610;12.100;2023-03-14T15:00:22;9.27;;;1.60;;
22656;SDS011;11495;55.610;12.100;2023-03-14T15:02:49;6.93;;;0.80;;
22656;SDS011;11495;55.610;12.100;2023-03-14T15:05:18;11.57;;;1.60;;
22656;SDS011;11495;55.610;12.100;2023-03-14T15:07:44;5.40;;;1.30;;
22656;SDS011;11495;55.610;12.100;2023-03-14T15:10:14;5.22;;;1.23;;
22656;SDS011;11495;55.610;12.100;2023-03-14T15:12:39;7.78;;;1.40;;
22656;SDS011;11495;55.610;12.100;2023-03-14T15:15:05;4.40;;;0.70;;
22656;SDS011;11495;55.610;12.100;2023-03-14T15:17:30;2.10;;;0.80;;
22656;SDS011;11495;55.610;12.100;2023-03-14T15:19:56;5.25;;;1.12;;
22656;SDS011;11495;55.610;12.100;2023-03-14T15:22:23;2.35;;;1.02;;
22656;SDS011;11495;55.610;12.100;2023-03-14T15:24:48;3.62;;;1.35;;
22656;SDS011;11495;55.610;12.100;2023-03-14T15:27:14;5.63;;;1.23;;
22656;SDS011;11495;55.610;12.100;2023-03-14T15:29:40;8.00;;;2.65;;
22656;SDS011;11495;55.610;12.100;2023-03-14T15:32:05;2.55;;;1.05;;
22656;SDS011;11495;55.610;12.100;2023-03-14T15:34:30;5.97;;;1.15;;